Airfield :
LOGIN :

Register | Disclaimer

   EN    FR    IT 

 










Legend :    VFR   Marginal VFR   IFR   Intensive IFR   Very Intensive IFR
Visi :
Ceiling :
>= 8 km
>= 3000ft
5 to 8 km
1000 to 3000 ft
1500m to 5 km
500 to 1000 ft
800 to 1500m
200 to 500 ft
< 800m
< 200 ft
Symbols :   Thunderstorms  Fog  Heavy snow  Heavy precipitations  Wind > 20 kt
SIGMETs :     Misc.  Thunderstorms  Icing  Turbulence  Mountain Waves  Volcanic Ashes







- Airport Elevation : 2776 ft
- IATA code : VLL


LEVD - Valladolid

CURRENT METAR :
  • 141830Z 25019KT 9999 OVC014 10/08 Q1014

EXPIRED METARs :
  • 141800Z 24016KT 9999 BKN015 BKN037 10/08 Q1015
  • 141730Z 24018KT 9999 SCT016 BKN024 BKN046 10/08 Q1015
  • 141700Z 25019G29KT 9999 BKN017 OVC046 11/08 Q1015
  • 141630Z 25019KT 9999 OVC016 11/08 Q1015
  • 141600Z 25017KT 9999 BKN016 OVC021 11/08 Q1015

TAF TAF LEVD
Valid from the 14 at 18:00 until the 15 at 18:00 UTC


141700Z 1418/1518 25017KT 8000 BKN010 TX10/1515Z TN02/1506Z
BECMG 1510/1514 31010KT
PROB40
TEMPO 1420/1510 3000 BR BKN002
PROB40
TEMPO 1505/1510 0100 FG FEW001
No reported NOTAMs for that airfield.



MET'MAP, your aeronautical weather chart ! - Copyright ORBIFLY December 2007 - Disclaimer

ORBIFLY MET'MAP TEAM :

Programming & Development : Alexandra Zaïnal
Concept & Development : Baudouin d'Aumeries
Co-Development & Prog : Marc-Olivier Méhu
Technical & hardware support : Manuel Goepfert

Contact : metmap@orbifly.com




SOURCES & CREDITS :

   NOAA